Time;durP1;ratioP1;P1;durP2;ratioP2;P2;SDS_P1;SDS_P2;PMS_P1;PMS_P2;Temp;Humidity;BMP_temperature;BMP_pressure;BME280_temperature;BME280_humidity;BME280_pressure;Samples;Min_cycle;Max_cycle;Signal;HPM_P1;HPM_P2
2022/08/13 00:00:59;;;;;;;1.30;1.20;;;18.60;99.90;;;;;;5006423;28;20109;-76
2022/08/13 00:03:26;;;;;;;1.67;1.52;;;18.60;99.90;;;;;;5003671;28;20096;-76
2022/08/13 00:05:52;;;;;;;1.55;1.10;;;18.50;99.90;;;;;;5009227;28;20033;-76
2022/08/13 00:08:22;;;;;;;2.60;1.80;;;18.50;99.90;;;;;;5004960;28;20124;-76
2022/08/13 00:10:48;;;;;;;1.92;1.48;;;18.50;99.90;;;;;;5006596;28;20111;-76
2022/08/13 00:13:16;;;;;;;1.95;1.38;;;18.50;99.90;;;;;;4995451;28;20492;-76
2022/08/13 00:15:43;;;;;;;2.15;1.50;;;18.40;99.90;;;;;;5001837;28;20041;-76
2022/08/13 00:18:24;;;;;;;2.17;1.63;;;18.40;99.90;;;;;;5000024;28;20025;-75
2022/08/13 00:20:52;;;;;;;;;;;18.50;99.90;;;;;;4990265;28;20027;-76
2022/08/13 00:23:19;;;;;;;2.25;1.42;;;18.40;99.90;;;;;;4999268;28;19909;-75
2022/08/13 00:25:47;;;;;;;1.55;1.42;;;18.40;99.90;;;;;;5001068;28;20034;-76
2022/08/13 00:28:18;;;;;;;2.70;1.63;;;18.40;99.90;;;;;;5002692;28;20477;-76
2022/08/13 00:30:46;;;;;;;4.28;1.58;;;18.40;99.90;;;;;;5005993;28;20030;-76
2022/08/13 00:33:15;;;;;;;1.65;1.30;;;18.40;99.90;;;;;;4998999;28;20033;-76
2022/08/13 00:35:42;;;;;;;1.40;1.30;;;18.40;99.90;;;;;;5006970;28;20048;-76
2022/08/13 00:38:10;;;;;;;2.33;1.40;;;18.30;99.90;;;;;;5000631;28;20026;-76
2022/08/13 00:40:36;;;;;;;2.53;1.75;;;18.30;99.90;;;;;;4998289;28;20037;-75
2022/08/13 00:43:04;;;;;;;2.58;1.63;;;18.30;99.90;;;;;;5005654;28;20080;-75
2022/08/13 00:45:32;;;;;;;1.40;1.10;;;18.30;99.90;;;;;;4995127;28;20445;-75
2022/08/13 00:50:42;;;;;;;1.40;1.27;;;18.30;99.90;;;;;;4999767;28;20108;-76
2022/08/13 00:53:17;;;;;;;1.50;1.40;;;18.20;99.90;;;;;;5004539;28;20473;-76
2022/08/13 00:55:48;;;;;;;3.22;1.38;;;18.20;99.90;;;;;;5003944;28;20046;-77
2022/08/13 00:58:16;;;;;;;2.08;1.33;;;18.20;99.90;;;;;;5005123;28;20029;-76
2022/08/13 01:00:46;;;;;;;1.45;1.10;;;18.20;99.90;;;;;;5003073;28;20133;-76
2022/08/13 01:03:12;;;;;;;2.90;1.65;;;18.20;99.90;;;;;;5003523;28;20033;-76
2022/08/13 01:05:40;;;;;;;2.28;1.63;;;18.10;99.90;;;;;;5006824;28;20033;-76
2022/08/13 01:08:06;;;;;;;1.90;1.58;;;18.10;99.90;;;;;;5001581;28;20044;-75
2022/08/13 01:10:32;;;;;;;3.80;2.05;;;18.00;99.90;;;;;;5001861;28;20026;-77
2022/08/13 01:12:59;;;;;;;3.28;1.08;;;18.00;99.90;;;;;;4995308;28;20057;-76
2022/08/13 01:15:27;;;;;;;2.33;1.70;;;18.00;99.90;;;;;;5003642;28;20029;-75
2022/08/13 01:17:54;;;;;;;1.60;1.40;;;18.00;99.90;;;;;;5003955;28;20042;-76
2022/08/13 01:20:21;;;;;;;2.17;1.38;;;18.00;99.90;;;;;;5005011;28;20453;-76
2022/08/13 01:22:52;;;;;;;1.65;1.30;;;18.00;99.90;;;;;;5002777;28;20054;-75
2022/08/13 01:25:24;;;;;;;1.50;1.23;;;18.00;99.90;;;;;;5003780;28;20492;-76
2022/08/13 01:27:50;;;;;;;1.60;1.50;;;18.00;99.90;;;;;;5004985;28;20064;-76
2022/08/13 01:30:18;;;;;;;2.38;1.77;;;17.90;99.90;;;;;;5001810;28;20058;-75
2022/08/13 01:32:45;;;;;;;2.95;1.60;;;17.90;99.90;;;;;;4999821;28;20076;-76
2022/08/13 01:35:11;;;;;;;1.58;1.48;;;17.90;99.90;;;;;;5001721;28;20033;-76
2022/08/13 01:37:37;;;;;;;1.75;1.30;;;17.80;99.90;;;;;;5003138;28;20500;-77
2022/08/13 01:40:05;;;;;;;1.42;1.25;;;17.80;99.90;;;;;;4999087;28;20062;-75
2022/08/13 01:42:41;;;;;;;1.60;1.30;;;17.80;99.90;;;;;;4999054;28;20445;-76
2022/08/13 01:45:07;;;;;;;2.53;1.63;;;17.80;99.90;;;;;;5001584;28;20025;-75
2022/08/13 01:50:29;;;;;;;2.58;1.45;;;17.80;99.90;;;;;;4988446;28;20030;-75
2022/08/13 01:53:07;;;;;;;1.35;1.17;;;17.70;99.90;;;;;;5003641;28;20038;-76
2022/08/13 01:55:39;;;;;;;1.38;1.10;;;17.70;99.90;;;;;;5001303;28;20056;-75
2022/08/13 01:58:07;;;;;;;1.38;1.27;;;17.70;99.90;;;;;;5002748;28;20499;-76
2022/08/13 02:00:34;;;;;;;1.98;1.52;;;17.70;99.90;;;;;;5003669;28;20042;-76
2022/08/13 02:03:01;;;;;;;2.75;1.85;;;17.70;99.90;;;;;;5006170;28;20022;-76
2022/08/13 02:05:27;;;;;;;1.25;1.10;;;17.70;99.90;;;;;;5006487;28;20094;-76
2022/08/13 02:07:53;;;;;;;2.47;2.03;;;17.60;99.90;;;;;;5005680;28;20778;-76
2022/08/13 02:10:22;;;;;;;1.63;1.48;;;17.60;99.90;;;;;;5005790;28;20036;-76
2022/08/13 02:12:50;;;;;;;1.85;1.48;;;17.60;99.90;;;;;;4999691;28;20038;-75
2022/08/13 02:15:17;;;;;;;2.47;1.58;;;17.60;99.90;;;;;;5003842;28;20040;-76
2022/08/13 02:17:42;;;;;;;1.35;1.25;;;17.60;99.90;;;;;;5004431;28;20104;-76
2022/08/13 02:20:17;;;;;;;1.58;1.33;;;17.60;99.90;;;;;;5004540;28;20456;-76
2022/08/13 02:22:46;;;;;;;1.88;1.50;;;17.60;99.90;;;;;;5007642;28;20032;-75
2022/08/13 02:25:14;;;;;;;1.73;1.42;;;17.60;99.90;;;;;;5009373;28;20022;-76
2022/08/13 02:27:41;;;;;;;2.47;1.60;;;17.50;99.90;;;;;;5009570;28;20029;-75
2022/08/13 02:30:09;;;;;;;2.65;1.75;;;17.50;99.90;;;;;;5004912;28;20033;-75
2022/08/13 02:32:36;;;;;;;2.88;1.38;;;17.50;99.90;;;;;;4998499;28;20027;-75
2022/08/13 02:35:03;;;;;;;2.15;1.48;;;17.50;99.90;;;;;;5005567;28;20986;-77
2022/08/13 02:37:30;;;;;;;2.78;1.85;;;17.50;99.90;;;;;;5003326;28;20120;-76
2022/08/13 02:39:56;;;;;;;3.25;2.17;;;17.40;99.90;;;;;;5007150;28;20495;-76
2022/08/13 02:42:22;;;;;;;1.83;1.30;;;17.40;99.90;;;;;;5000239;28;20022;-77
2022/08/13 02:44:50;;;;;;;2.45;1.90;;;17.40;99.90;;;;;;5006133;28;20040;-77
2022/08/13 02:47:18;;;;;;;2.47;1.70;;;17.30;99.90;;;;;;5003744;28;20045;-76
2022/08/13 02:49:44;;;;;;;3.05;1.85;;;17.30;99.90;;;;;;4998067;28;20048;-76
2022/08/13 02:52:13;;;;;;;2.97;1.20;;;17.40;99.90;;;;;;5004920;28;20033;-77
2022/08/13 02:54:42;;;;;;;2.58;1.80;;;17.40;99.90;;;;;;5008097;28;20038;-77
2022/08/13 02:57:08;;;;;;;2.75;1.70;;;17.40;99.90;;;;;;5005577;28;20503;-77
2022/08/13 02:59:34;;;;;;;2.10;1.45;;;17.40;99.90;;;;;;5007253;28;20385;-77
2022/08/13 03:02:01;;;;;;;2.05;1.48;;;17.40;99.90;;;;;;5006965;28;20022;-77
2022/08/13 03:04:26;;;;;;;2.20;1.85;;;17.40;99.90;;;;;;5003615;28;20033;-77
2022/08/13 03:06:52;;;;;;;3.30;1.90;;;17.40;99.90;;;;;;5007121;28;20030;-77
2022/08/13 03:09:20;;;;;;;1.85;1.60;;;17.30;99.90;;;;;;4994407;28;20023;-77
2022/08/13 03:11:47;;;;;;;2.17;1.67;;;17.30;99.90;;;;;;4994180;28;20045;-77
2022/08/13 03:14:13;;;;;;;2.30;1.55;;;17.30;99.90;;;;;;5001617;28;20034;-76
2022/08/13 03:16:41;;;;;;;3.00;2.10;;;17.30;99.90;;;;;;5004952;28;20041;-76
2022/08/13 03:19:07;;;;;;;3.50;1.83;;;17.30;99.90;;;;;;5003040;28;20026;-77
2022/08/13 03:21:37;;;;;;;2.10;1.67;;;17.30;99.90;;;;;;5007045;28;20195;-76
2022/08/13 03:24:04;;;;;;;1.42;1.33;;;17.20;99.90;;;;;;5004575;28;20481;-76
2022/08/13 03:26:31;;;;;;;3.75;2.47;;;17.20;99.90;;;;;;5008294;28;20235;-76
2022/08/13 03:28:57;;;;;;;1.85;1.48;;;17.20;99.90;;;;;;5003111;28;20037;-77
2022/08/13 03:31:24;;;;;;;1.95;1.67;;;17.20;99.90;;;;;;4997260;28;20030;-77
2022/08/13 03:33:50;;;;;;;3.63;1.63;;;17.20;99.90;;;;;;4997728;28;20038;-77
2022/08/13 03:36:16;;;;;;;1.92;1.63;;;17.20;99.90;;;;;;5000975;28;20408;-76
2022/08/13 03:38:42;;;;;;;3.28;1.90;;;17.20;99.90;;;;;;5004950;28;20040;-75
2022/08/13 03:41:14;;;;;;;3.17;2.35;;;17.20;99.90;;;;;;5003848;28;20022;-77
2022/08/13 03:43:47;;;;;;;3.30;2.10;;;17.20;99.90;;;;;;4996970;28;20097;-76
2022/08/13 03:46:16;;;;;;;3.88;2.35;;;17.20;99.90;;;;;;5006072;28;20022;-76
2022/08/13 03:48:43;;;;;;;3.13;1.90;;;17.20;99.90;;;;;;5006006;28;20805;-76
2022/08/13 03:51:09;;;;;;;2.47;1.90;;;17.10;99.90;;;;;;5003665;28;20026;-75
2022/08/13 03:53:35;;;;;;;2.35;2.05;;;17.10;99.90;;;;;;5002729;28;20056;-77
2022/08/13 03:56:02;;;;;;;2.85;2.13;;;17.10;99.90;;;;;;5000325;28;20053;-77
2022/08/13 03:58:29;;;;;;;3.70;2.30;;;17.10;99.90;;;;;;5002728;28;20030;-77
2022/08/13 04:00:55;;;;;;;3.60;2.20;;;17.10;99.90;;;;;;5004957;28;20097;-76
2022/08/13 04:03:30;;;;;;;3.20;1.70;;;17.10;99.90;;;;;;5001121;28;20525;-78
2022/08/13 04:06:01;;;;;;;6.78;2.20;;;17.10;99.90;;;;;;4999704;28;20072;-78
2022/08/13 04:08:29;;;;;;;2.03;1.58;;;17.10;99.90;;;;;;5002718;28;20030;-77
2022/08/13 04:10:56;;;;;;;1.83;1.60;;;17.10;99.90;;;;;;5005080;28;20139;-76
2022/08/13 04:13:24;;;;;;;2.20;1.50;;;17.10;99.90;;;;;;4995966;28;20030;-77
2022/08/13 04:15:50;;;;;;;3.88;1.67;;;17.20;99.90;;;;;;5000105;28;20041;-76
2022/08/13 04:18:17;;;;;;;2.10;1.73;;;17.20;99.90;;;;;;4998720;28;20034;-76
2022/08/13 04:20:50;;;;;;;2.50;1.50;;;17.20;99.90;;;;;;5001027;28;20034;-76
2022/08/13 04:23:16;;;;;;;2.60;1.77;;;17.20;99.90;;;;;;5002470;28;20146;-76
2022/08/13 04:25:43;;;;;;;4.10;1.50;;;17.20;99.90;;;;;;4996739;28;20048;-77
2022/08/13 04:28:16;;;;;;;2.85;1.40;;;17.20;99.90;;;;;;4996309;28;20030;-76
2022/08/13 04:30:43;;;;;;;2.42;1.77;;;17.20;99.90;;;;;;5001978;28;20099;-76
2022/08/13 04:33:11;;;;;;;1.35;1.20;;;17.20;99.90;;;;;;5000189;28;20018;-76
2022/08/13 04:35:38;;;;;;;1.98;1.77;;;17.20;99.90;;;;;;4996936;28;20045;-76
2022/08/13 04:38:05;;;;;;;1.60;1.50;;;17.30;99.90;;;;;;4998720;28;20033;-77
2022/08/13 04:40:33;;;;;;;2.28;1.52;;;17.30;99.90;;;;;;4999318;28;20022;-77
2022/08/13 04:42:58;;;;;;;1.98;1.80;;;17.40;99.90;;;;;;5005284;28;20100;-76
2022/08/13 04:45:26;;;;;;;2.13;1.50;;;17.40;99.90;;;;;;4989709;28;20102;-76
2022/08/13 04:47:58;;;;;;;1.83;1.35;;;17.40;99.90;;;;;;5000445;28;20116;-76
2022/08/13 04:50:25;;;;;;;3.08;1.55;;;17.30;99.90;;;;;;5006880;28;20034;-76
2022/08/13 04:52:51;;;;;;;3.30;1.50;;;17.30;99.90;;;;;;5004566;28;20066;-76
2022/08/13 04:55:17;;;;;;;2.45;1.20;;;17.40;99.90;;;;;;5003781;28;20452;-77
2022/08/13 04:57:43;;;;;;;2.53;1.65;;;17.40;99.90;;;;;;5003659;28;20033;-76
2022/08/13 05:00:09;;;;;;;1.73;1.48;;;17.40;99.90;;;;;;5002118;28;20037;-76
2022/08/13 05:02:39;;;;;;;1.58;1.33;;;17.40;99.90;;;;;;5002303;28;20026;-77
2022/08/13 05:05:06;;;;;;;2.08;1.60;;;17.50;99.90;;;;;;5006451;28;20030;-77
2022/08/13 05:07:32;;;;;;;1.98;1.55;;;17.60;99.90;;;;;;5000919;28;20531;-76
2022/08/13 05:09:57;;;;;;;1.65;1.40;;;17.70;99.90;;;;;;5003497;28;20038;-76
2022/08/13 05:12:23;;;;;;;1.55;1.45;;;17.80;99.90;;;;;;4998259;28;20026;-76
2022/08/13 05:14:48;;;;;;;1.75;1.60;;;17.90;99.90;;;;;;5004704;28;20030;-76
2022/08/13 05:17:14;;;;;;;2.40;1.58;;;18.10;99.90;;;;;;5002831;28;20045;-77
2022/08/13 05:19:40;;;;;;;4.47;1.92;;;18.20;99.90;;;;;;4998121;28;20027;-77
2022/08/13 05:22:07;;;;;;;1.90;1.48;;;18.30;99.90;;;;;;4999107;28;20026;-76
2022/08/13 05:24:33;;;;;;;1.92;1.50;;;18.40;99.90;;;;;;4978336;28;20065;-76
2022/08/13 05:27:09;;;;;;;1.58;1.48;;;18.50;99.90;;;;;;5001193;28;20467;-77
2022/08/13 05:29:37;;;;;;;2.10;1.48;;;18.60;99.90;;;;;;5001299;28;20030;-76
2022/08/13 05:32:04;;;;;;;8.63;1.70;;;18.70;99.90;;;;;;5002120;28;20568;-78
2022/08/13 05:34:30;;;;;;;1.50;1.40;;;18.80;99.90;;;;;;5003696;28;20030;-76
2022/08/13 05:36:55;;;;;;;1.60;1.48;;;18.90;99.90;;;;;;5001542;28;20599;-77
2022/08/13 05:39:21;;;;;;;2.03;1.25;;;19.00;99.90;;;;;;5000880;28;20029;-77
2022/08/13 05:41:47;;;;;;;2.63;1.60;;;19.10;99.90;;;;;;4999617;28;20026;-77
2022/08/13 05:44:13;;;;;;;2.45;1.55;;;19.30;99.90;;;;;;5002011;28;20724;-76
2022/08/13 05:46:39;;;;;;;2.08;1.70;;;19.40;99.90;;;;;;5005441;28;20045;-75
2022/08/13 05:49:04;;;;;;;2.40;1.60;;;19.60;99.90;;;;;;5008674;28;20029;-78
2022/08/13 05:51:33;;;;;;;1.90;1.70;;;19.80;99.90;;;;;;5009794;28;20057;-78
2022/08/13 05:54:00;;;;;;;2.33;1.80;;;20.00;99.90;;;;;;4998870;28;20038;-79
2022/08/13 05:56:28;;;;;;;4.00;1.75;;;20.20;99.90;;;;;;5005904;28;20049;-77
2022/08/13 05:58:54;;;;;;;1.90;1.50;;;20.40;99.90;;;;;;4999812;28;20101;-77
2022/08/13 06:04:09;;;;;;;2.78;1.67;;;20.90;99.90;;;;;;5008805;28;20029;-77
2022/08/13 06:06:36;;;;;;;2.13;1.67;;;21.10;99.90;;;;;;5000496;28;20085;-78
2022/08/13 06:09:04;;;;;;;3.42;2.15;;;21.30;99.90;;;;;;5006862;28;20112;-78
2022/08/13 06:11:30;;;;;;;1.75;1.60;;;21.40;99.90;;;;;;5004938;28;20045;-78
2022/08/13 06:13:56;;;;;;;3.00;2.03;;;21.40;99.90;;;;;;5006755;28;20046;-78
2022/08/13 06:16:28;;;;;;;1.90;1.65;;;21.40;99.90;;;;;;5002107;28;20033;-78
2022/08/13 06:18:54;;;;;;;;;;;21.50;99.90;;;;;;5001950;28;20033;-78
2022/08/13 06:21:20;;;;;;;1.50;1.38;;;21.50;99.90;;;;;;4999088;28;19995;-78
2022/08/13 06:23:46;;;;;;;3.85;1.75;;;21.50;99.90;;;;;;5007158;28;20288;-78
2022/08/13 06:26:14;;;;;;;3.17;1.67;;;21.60;99.90;;;;;;4999081;28;20026;-78
2022/08/13 06:28:40;;;;;;;3.80;2.15;;;21.60;99.90;;;;;;5009611;28;20419;-78
2022/08/13 06:31:09;;;;;;;1.25;1.15;;;21.70;99.90;;;;;;5008437;28;20037;-80
2022/08/13 06:33:36;;;;;;;2.22;1.92;;;21.80;99.90;;;;;;5002838;28;20026;-76
2022/08/13 06:36:04;;;;;;;2.72;1.70;;;21.80;99.90;;;;;;5008718;28;20057;-75
2022/08/13 06:38:36;;;;;;;2.28;1.83;;;22.00;99.60;;;;;;5007621;28;20025;-76
2022/08/13 06:41:04;;;;;;;1.70;1.50;;;22.10;99.90;;;;;;5005396;28;20611;-75
2022/08/13 06:43:35;;;;;;;3.33;1.73;;;22.10;99.60;;;;;;5006708;28;20037;-76
2022/08/13 06:46:03;;;;;;;1.53;1.43;;;22.30;99.90;;;;;;5005774;28;20590;-76
2022/08/13 06:48:29;;;;;;;2.00;1.60;;;22.40;99.60;;;;;;5004800;28;20084;-76
2022/08/13 06:50:55;;;;;;;2.25;1.88;;;22.50;98.10;;;;;;4999488;28;20503;-76
2022/08/13 06:53:21;;;;;;;1.67;1.52;;;22.50;99.00;;;;;;5003354;28;20029;-76
2022/08/13 06:55:50;;;;;;;3.03;1.95;;;22.60;97.20;;;;;;5003872;28;20034;-76
2022/08/13 06:58:22;;;;;;;2.45;1.80;;;22.60;96.70;;;;;;5004226;28;20046;-77
2022/08/13 07:00:49;;;;;;;3.90;2.33;;;22.70;95.50;;;;;;5003865;28;20032;-76
2022/08/13 07:03:17;;;;;;;2.75;1.75;;;22.80;96.70;;;;;;5002890;28;20026;-77
2022/08/13 07:05:43;;;;;;;2.10;1.90;;;22.90;96.40;;;;;;5005480;28;20026;-78
2022/08/13 07:08:11;;;;;;;2.22;1.80;;;23.00;95.30;;;;;;5001049;28;20025;-77
2022/08/13 07:10:43;;;;;;;2.10;1.65;;;23.10;95.80;;;;;;5008244;28;20113;-79
2022/08/13 07:13:09;;;;;;;2.20;1.65;;;23.30;94.00;;;;;;5000914;28;20066;-78
2022/08/13 07:15:36;;;;;;;2.00;1.70;;;23.30;93.10;;;;;;5004707;28;20022;-78
2022/08/13 07:18:04;;;;;;;2.25;1.80;;;23.40;93.70;;;;;;5004375;28;20485;-77
2022/08/13 07:20:31;;;;;;;2.42;2.03;;;23.40;91.20;;;;;;5006713;28;20022;-77
2022/08/13 07:22:57;;;;;;;2.17;1.60;;;23.50;93.40;;;;;;5001334;28;20176;-75
2022/08/13 07:25:26;;;;;;;2.22;1.73;;;23.50;90.70;;;;;;5010692;28;20764;-77
2022/08/13 07:27:52;;;;;;;2.40;2.05;;;23.60;90.10;;;;;;5005431;28;20030;-77
2022/08/13 07:30:19;;;;;;;3.45;2.15;;;23.60;90.60;;;;;;5002644;28;20030;-81
2022/08/13 07:32:45;;;;;;;4.38;1.95;;;23.50;91.50;;;;;;4998651;28;20536;-76
2022/08/13 07:35:11;;;;;;;2.17;1.95;;;23.70;91.30;;;;;;4994852;28;20026;-76
2022/08/13 07:37:37;;;;;;;2.10;1.90;;;23.70;88.40;;;;;;4999961;28;20035;-76
2022/08/13 07:40:04;;;;;;;1.92;1.70;;;23.80;93.00;;;;;;4996878;28;20025;-76
2022/08/13 07:42:32;;;;;;;2.30;1.90;;;23.90;88.90;;;;;;4999939;28;20512;-77
2022/08/13 07:44:59;;;;;;;2.08;1.50;;;23.80;93.50;;;;;;4998557;28;20532;-76
2022/08/13 07:47:25;;;;;;;3.88;2.05;;;23.70;88.70;;;;;;5006518;28;20022;-76
2022/08/13 07:49:54;;;;;;;2.30;1.73;;;23.90;92.20;;;;;;5004438;28;20042;-77
2022/08/13 07:52:19;;;;;;;3.22;1.75;;;24.10;89.50;;;;;;4997831;28;20038;-76
2022/08/13 07:54:47;;;;;;;2.78;1.73;;;24.10;89.50;;;;;;5001247;28;20165;-78
2022/08/13 07:57:12;;;;;;;2.05;1.80;;;23.90;90.10;;;;;;4997464;28;20091;-76
2022/08/13 07:59:40;;;;;;;1.80;1.50;;;23.80;87.50;;;;;;5003694;28;20137;-76
2022/08/13 08:02:06;;;;;;;1.85;1.52;;;23.70;86.70;;;;;;5002016;28;20037;-76
2022/08/13 08:04:34;;;;;;;2.28;1.85;;;23.60;86.60;;;;;;5007371;28;20029;-77
2022/08/13 08:07:01;;;;;;;5.10;2.00;;;23.70;90.50;;;;;;5002518;28;20026;-76
2022/08/13 08:09:31;;;;;;;2.60;1.80;;;23.70;86.90;;;;;;5000010;28;20032;-77
2022/08/13 08:14:44;;;;;;;2.63;1.45;;;23.70;86.50;;;;;;4997959;28;20087;-75
2022/08/13 08:17:11;;;;;;;2.60;1.80;;;23.60;86.80;;;;;;5004386;28;20108;-76
2022/08/13 08:19:41;;;;;;;2.70;2.08;;;23.60;86.30;;;;;;5003597;28;20104;-72
2022/08/13 08:22:11;;;;;;;1.92;1.73;;;23.60;88.30;;;;;;5004372;28;20083;-79
2022/08/13 08:24:37;;;;;;;2.63;1.40;;;23.60;87.90;;;;;;4998413;28;20037;-80
2022/08/13 08:27:06;;;;;;;2.58;1.75;;;23.50;87.00;;;;;;4985180;28;20033;-77
2022/08/13 08:29:33;;;;;;;1.83;1.55;;;23.40;87.90;;;;;;4997187;28;20022;-86
2022/08/13 08:32:08;;;;;;;2.28;1.77;;;23.40;87.60;;;;;;4982839;28;20487;-85
2022/08/13 08:34:34;;;;;;;1.67;1.58;;;23.30;88.10;;;;;;5005698;28;20511;-80
2022/08/13 08:37:00;;;;;;;2.63;1.67;;;23.20;88.20;;;;;;5002897;28;20038;-81
2022/08/13 08:42:35;;;;;;;2.25;1.80;;;23.20;89.20;;;;;;4999428;28;20038;-80
2022/08/13 08:45:00;;;;;;;1.70;1.50;;;23.40;88.40;;;;;;5007791;28;20133;-82
2022/08/13 08:47:32;;;;;;;1.88;1.63;;;23.60;88.90;;;;;;5003174;28;20093;-84
2022/08/13 08:49:59;;;;;;;1.48;1.38;;;23.80;86.50;;;;;;5004683;28;20389;-80
2022/08/13 08:53:19;;;;;;;1.75;1.58;;;24.00;86.30;;;;;;5002917;28;20041;-79
2022/08/13 08:55:13;;;;;;;1.88;1.60;;;24.10;85.10;;;;;;5000399;28;20038;-78
2022/08/13 08:57:44;;;;;;;2.67;1.77;;;24.10;84.40;;;;;;5000250;28;20026;-82
2022/08/13 09:00:14;;;;;;;5.05;2.20;;;24.10;85.50;;;;;;5004109;28;20037;-80
2022/08/13 09:02:40;;;;;;;2.03;1.70;;;24.20;88.30;;;;;;5002569;28;20088;-84
2022/08/13 09:05:12;;;;;;;3.25;1.70;;;24.30;86.20;;;;;;5014356;28;20033;-81
2022/08/13 09:07:40;;;;;;;3.92;1.85;;;24.20;84.80;;;;;;4979107;28;20033;-81
2022/08/13 09:10:09;;;;;;;3.00;1.98;;;24.20;86.50;;;;;;5004693;28;20038;-81
2022/08/13 09:12:40;;;;;;;3.70;1.80;;;24.30;84.80;;;;;;4987484;28;20033;-80
2022/08/13 09:15:05;;;;;;;3.30;2.13;;;24.30;84.40;;;;;;5011163;28;20038;-81
2022/08/13 09:17:32;;;;;;;3.35;2.35;;;24.40;83.90;;;;;;5005605;28;20026;-82
2022/08/13 09:19:57;;;;;;;2.25;1.75;;;24.50;86.10;;;;;;5005888;28;20029;-83
2022/08/13 09:22:24;;;;;;;2.22;1.77;;;24.60;85.20;;;;;;5006031;28;20564;-83
2022/08/13 09:24:51;;;;;;;3.33;2.63;;;24.70;84.90;;;;;;5009246;28;20049;-83
2022/08/13 09:27:19;;;;;;;2.55;2.22;;;24.60;84.60;;;;;;4988011;28;20045;-81
2022/08/13 09:29:46;;;;;;;3.67;2.28;;;24.70;84.00;;;;;;4984477;28;20038;-81
2022/08/13 09:32:14;;;;;;;3.80;2.83;;;24.80;87.30;;;;;;5001235;28;20125;-81
2022/08/13 09:34:43;;;;;;;2.45;1.98;;;24.90;85.60;;;;;;5005584;28;20088;-82
2022/08/13 09:37:09;;;;;;;3.40;2.33;;;25.00;83.20;;;;;;4988700;28;20049;-80
2022/08/13 09:39:58;;;;;;;4.30;2.10;;;25.10;84.10;;;;;;5005677;28;20073;-84
2022/08/13 09:42:30;;;;;;;3.75;2.28;;;25.10;83.50;;;;;;5001337;28;20136;-85
2022/08/13 09:44:59;;;;;;;4.22;2.50;;;24.90;85.80;;;;;;5000606;28;20034;-80
2022/08/13 09:47:25;;;;;;;4.22;2.20;;;24.90;84.00;;;;;;5005630;28;20423;-82
2022/08/13 09:49:51;;;;;;;2.72;2.22;;;24.90;86.30;;;;;;5018517;28;20021;-82
2022/08/13 09:52:17;;;;;;;3.08;2.28;;;24.70;84.30;;;;;;5019196;28;20154;-82
2022/08/13 09:54:43;;;;;;;2.92;2.38;;;24.40;85.30;;;;;;5002410;28;20042;-82
2022/08/13 09:57:09;;;;;;;2.30;2.00;;;24.30;86.70;;;;;;5007391;28;20069;-82
2022/08/13 09:59:35;;;;;;;2.85;2.20;;;24.10;88.50;;;;;;5005685;28;20022;-82
2022/08/13 10:02:05;;;;;;;4.15;2.90;;;24.10;86.70;;;;;;5006851;28;20030;-83
2022/08/13 10:04:43;;;;;;;4.10;2.65;;;24.20;87.90;;;;;;5011161;28;20424;-81
2022/08/13 10:07:11;;;;;;;2.78;2.33;;;24.20;87.70;;;;;;5016085;28;20033;-83
2022/08/13 10:09:38;;;;;;;3.50;2.22;;;24.30;87.50;;;;;;4999966;28;20048;-81
2022/08/13 10:12:06;;;;;;;3.03;2.25;;;24.20;86.30;;;;;;5001869;28;20034;-77
2022/08/13 10:14:33;;;;;;;3.78;2.28;;;24.10;87.70;;;;;;5003705;28;20052;-77
2022/08/13 10:16:59;;;;;;;2.67;1.98;;;24.10;88.50;;;;;;5008594;28;20056;-77
2022/08/13 10:19:25;;;;;;;3.30;2.33;;;24.20;87.60;;;;;;4995869;28;20021;-77
2022/08/13 10:21:51;;;;;;;5.90;2.88;;;24.10;87.20;;;;;;5000515;28;20033;-78
2022/08/13 10:24:16;;;;;;;2.70;2.20;;;24.10;88.00;;;;;;5004676;28;20088;-77
2022/08/13 10:26:42;;;;;;;4.18;2.50;;;24.10;87.90;;;;;;5003688;28;20523;-76
2022/08/13 10:29:09;;;;;;;2.65;2.28;;;23.90;89.60;;;;;;5000320;28;20105;-76
2022/08/13 10:31:35;;;;;;;4.65;2.80;;;23.80;89.50;;;;;;5003333;28;20032;-77
2022/08/13 10:34:01;;;;;;;4.70;3.45;;;23.80;90.00;;;;;;4983329;28;20141;-77
2022/08/13 10:36:28;;;;;;;5.88;3.75;;;23.90;89.20;;;;;;5009240;28;20113;-77
2022/08/13 10:38:54;;;;;;;4.57;3.25;;;24.00;90.60;;;;;;4991660;28;20050;-78
2022/08/13 10:41:20;;;;;;;4.53;3.00;;;24.00;90.00;;;;;;4993775;28;20025;-78
2022/08/13 10:43:46;;;;;;;3.40;2.47;;;24.10;90.70;;;;;;5003210;28;20030;-77
2022/08/13 10:46:12;;;;;;;4.15;3.17;;;24.10;91.90;;;;;;5007308;28;20046;-78
2022/08/13 10:48:38;;;;;;;2.97;2.38;;;24.10;93.20;;;;;;5004637;28;20093;-78
2022/08/13 10:51:04;;;;;;;5.18;2.60;;;24.10;94.10;;;;;;4994549;28;20036;-77
2022/08/13 10:56:16;;;;;;;3.90;2.50;;;24.00;95.30;;;;;;5005137;28;20138;-77
2022/08/13 10:58:42;;;;;;;3.45;2.50;;;23.90;93.00;;;;;;5007761;28;20491;-78
2022/08/13 11:01:08;;;;;;;4.00;2.33;;;23.80;93.30;;;;;;5003306;28;20034;-78
2022/08/13 11:03:34;;;;;;;4.13;2.80;;;23.80;94.00;;;;;;5009504;28;20053;-78
2022/08/13 11:06:00;;;;;;;3.70;2.47;;;24.00;92.90;;;;;;5015423;28;20030;-78
2022/08/13 11:08:33;;;;;;;2.20;1.70;;;24.00;93.40;;;;;;4998578;28;20493;-78
2022/08/13 11:10:59;;;;;;;4.75;2.80;;;24.00;94.10;;;;;;4996395;28;20520;-78
2022/08/13 11:13:25;;;;;;;3.10;2.03;;;24.00;94.50;;;;;;4999122;28;20027;-78
2022/08/13 11:15:51;;;;;;;4.10;2.17;;;23.90;91.80;;;;;;4999742;28;20030;-79
2022/08/13 11:18:18;;;;;;;4.93;2.50;;;24.00;92.00;;;;;;5006021;28;20037;-79
2022/08/13 11:21:02;;;;;;;2.42;2.03;;;23.90;92.90;;;;;;5004661;28;20703;-79
2022/08/13 11:23:28;;;;;;;4.25;2.28;;;24.00;93.10;;;;;;5001237;28;20088;-78
2022/08/13 11:25:54;;;;;;;3.45;2.47;;;24.00;92.00;;;;;;5002237;28;20061;-78
2022/08/13 11:28:19;;;;;;;3.33;2.10;;;24.10;91.50;;;;;;4991954;28;20034;-78
2022/08/13 11:30:45;;;;;;;3.28;2.45;;;24.10;93.60;;;;;;5004360;28;20147;-78
2022/08/13 11:33:11;;;;;;;2.55;2.35;;;24.20;93.10;;;;;;5002345;28;20774;-78
2022/08/13 11:35:36;;;;;;;2.72;2.15;;;24.30;91.80;;;;;;5001950;28;20038;-78
2022/08/13 11:38:10;;;;;;;3.30;2.20;;;24.20;93.00;;;;;;4997285;28;20048;-78
2022/08/13 11:40:37;;;;;;;3.35;2.47;;;24.10;92.10;;;;;;5007167;28;20492;-79
2022/08/13 11:43:03;;;;;;;2.80;2.10;;;24.10;92.20;;;;;;5009121;28;20032;-78
2022/08/13 11:45:28;;;;;;;3.38;2.20;;;24.10;92.60;;;;;;5007788;28;20022;-78
2022/08/13 11:47:54;;;;;;;3.08;2.25;;;24.00;91.80;;;;;;4997576;28;20033;-78
2022/08/13 11:50:19;;;;;;;2.70;2.40;;;24.10;91.50;;;;;;4990256;28;20026;-79
2022/08/13 11:52:45;;;;;;;3.17;2.25;;;24.10;94.50;;;;;;5003780;28;20036;-78
2022/08/13 11:55:10;;;;;;;3.70;1.90;;;24.00;92.00;;;;;;5002356;28;20042;-78
2022/08/13 11:57:36;;;;;;;3.15;2.20;;;24.00;93.90;;;;;;5002475;28;20085;-79
2022/08/13 12:00:04;;;;;;;3.35;2.40;;;23.90;92.40;;;;;;5001092;28;20022;-78
2022/08/13 12:02:30;;;;;;;3.00;2.45;;;23.90;92.60;;;;;;4995286;28;20038;-78
2022/08/13 12:04:55;;;;;;;2.38;2.17;;;24.10;98.10;;;;;;5004547;28;20022;-79
2022/08/13 12:07:22;;;;;;;2.03;1.77;;;24.30;94.80;;;;;;5005961;28;20031;-79
2022/08/13 12:09:48;;;;;;;2.58;2.15;;;24.40;91.70;;;;;;5003148;28;20036;-79
2022/08/13 12:12:13;;;;;;;3.05;2.38;;;24.90;99.90;;;;;;5001140;28;20034;-79
2022/08/13 12:14:39;;;;;;;2.83;2.17;;;24.80;90.50;;;;;;5008413;28;20022;-79
2022/08/13 12:17:04;;;;;;;2.15;1.95;;;24.90;90.60;;;;;;5009276;28;20030;-79
2022/08/13 12:19:30;;;;;;;2.25;2.03;;;25.10;91.20;;;;;;5002895;28;20022;-78
2022/08/13 12:21:55;;;;;;;2.47;2.00;;;24.90;89.10;;;;;;4995890;28;20034;-78
2022/08/13 12:24:21;;;;;;;2.58;2.20;;;24.90;88.80;;;;;;5011954;28;20464;-79
2022/08/13 12:26:46;;;;;;;4.18;2.85;;;24.80;90.40;;;;;;4996551;28;20114;-79
2022/08/13 12:29:12;;;;;;;3.00;2.40;;;24.90;94.00;;;;;;4995943;28;20148;-79
2022/08/13 12:31:37;;;;;;;2.38;2.13;;;25.10;92.20;;;;;;5008706;28;20022;-79
2022/08/13 12:34:03;;;;;;;2.75;2.38;;;25.20;90.40;;;;;;5008448;28;20018;-78
2022/08/13 12:36:28;;;;;;;2.90;2.00;;;25.10;85.30;;;;;;5010824;28;20068;-79
2022/08/13 12:38:54;;;;;;;3.42;2.33;;;24.80;86.60;;;;;;5013724;28;20556;-79
2022/08/13 12:41:19;;;;;;;2.30;1.90;;;25.00;88.90;;;;;;5008010;28;20022;-78
2022/08/13 12:43:46;;;;;;;2.50;2.17;;;25.00;90.10;;;;;;5007748;28;20061;-78
2022/08/13 12:46:11;;;;;;;2.28;2.08;;;25.10;87.60;;;;;;5007753;28;20030;-78
2022/08/13 12:48:37;;;;;;;2.72;2.35;;;24.80;88.60;;;;;;5008445;28;20022;-78
2022/08/13 12:51:02;;;;;;;4.45;2.75;;;24.90;89.10;;;;;;5008532;28;20033;-80
2022/08/13 12:53:28;;;;;;;3.13;2.38;;;25.10;88.60;;;;;;5002959;28;20064;-78
2022/08/13 12:55:53;;;;;;;4.90;2.92;;;24.90;86.50;;;;;;4995220;28;20046;-79
2022/08/13 12:58:25;;;;;;;3.75;2.55;;;25.10;86.40;;;;;;5002431;28;20038;-78
2022/08/13 13:00:54;;;;;;;;;;;25.10;89.90;;;;;;5001591;28;20037;-78
2022/08/13 13:03:20;;;;;;;3.55;2.45;;;25.40;85.30;;;;;;4994498;28;20391;-79
2022/08/13 13:05:48;;;;;;;2.25;2.05;;;25.40;85.30;;;;;;5007458;28;20034;-78